createdAt,value
2019-02-04T00:01:45.994Z,9.00
2019-02-04T00:06:37.403Z,8.00
2019-02-04T00:11:28.837Z,8.20
2019-02-04T00:16:20.135Z,7.80
2019-02-04T00:21:11.592Z,8.20
2019-02-04T00:26:02.975Z,10.30
2019-02-04T00:30:54.397Z,9.00
2019-02-04T00:35:45.699Z,7.70
2019-02-04T00:40:37.095Z,8.40
2019-02-04T00:45:30.785Z,11.50
2019-02-04T00:50:22.230Z,10.90
2019-02-04T00:55:13.509Z,8.10
2019-02-04T01:00:04.989Z,9.60
2019-02-04T01:04:56.316Z,20.20
2019-02-04T01:09:47.914Z,17.60
2019-02-04T01:14:39.137Z,11.90
2019-02-04T01:19:30.598Z,10.10
2019-02-04T01:24:21.912Z,8.50
2019-02-04T01:29:13.464Z,9.40
2019-02-04T01:34:04.700Z,8.70
2019-02-04T01:38:56.071Z,9.60
2019-02-04T01:43:47.440Z,11.60
2019-02-04T01:48:38.948Z,8.90
2019-02-04T01:53:30.218Z,9.00
2019-02-04T01:58:21.654Z,9.80
2019-02-04T02:03:15.258Z,10.90
2019-02-04T02:08:09.014Z,10.50
2019-02-04T02:13:00.372Z,9.90
2019-02-04T02:17:54.036Z,10.20
2019-02-04T02:22:45.408Z,9.50
2019-02-04T02:27:36.903Z,11.80
2019-02-04T02:32:28.163Z,8.80
2019-02-04T02:37:21.919Z,7.70
2019-02-04T02:42:13.221Z,8.10
2019-02-04T02:47:04.677Z,8.10
2019-02-04T02:51:56.034Z,8.10
2019-02-04T02:56:49.736Z,11.50
2019-02-04T03:01:41.090Z,9.60
2019-02-04T03:06:32.532Z,9.80
2019-02-04T03:11:23.880Z,9.10
2019-02-04T03:16:15.310Z,10.00
2019-02-04T03:21:08.946Z,10.60
2019-02-04T03:26:00.392Z,8.10
2019-02-04T03:30:51.722Z,9.40
2019-02-04T03:35:43.156Z,8.50
2019-02-04T03:40:34.467Z,8.10
2019-02-04T03:45:25.995Z,9.30
2019-02-04T03:50:17.266Z,9.20
2019-02-04T03:55:08.759Z,9.50
2019-02-04T04:00:00.020Z,10.50
2019-02-04T04:04:53.764Z,9.90
2019-02-04T04:09:47.337Z,12.80
2019-02-04T04:14:38.767Z,10.80
2019-02-04T04:19:30.141Z,10.30
2019-02-04T04:24:21.579Z,9.50
2019-02-04T04:29:12.934Z,10.60
2019-02-04T04:34:04.411Z,11.00
2019-02-04T04:38:55.710Z,12.50
2019-02-04T04:43:47.143Z,9.20
2019-02-04T04:48:38.504Z,11.30
2019-02-04T04:53:29.947Z,11.20
2019-02-04T04:58:21.329Z,11.50
2019-02-04T05:03:12.804Z,11.10
2019-02-04T05:08:04.096Z,11.70
2019-02-04T05:12:55.553Z,11.20
2019-02-04T05:17:46.918Z,12.00
2019-02-04T05:22:38.331Z,10.80
2019-02-04T05:27:29.696Z,10.90
2019-02-04T05:32:23.369Z,12.10
2019-02-04T05:37:14.776Z,12.20
2019-02-04T05:42:06.221Z,11.60
2019-02-04T05:46:57.546Z,13.10
2019-02-04T05:51:49.088Z,14.50
2019-02-04T05:56:40.493Z,19.10
2019-02-04T06:01:36.594Z,12.90
2019-02-04T06:06:27.895Z,11.90
2019-02-04T06:11:19.359Z,12.00
2019-02-04T06:16:10.671Z,13.60
2019-02-04T06:21:02.187Z,12.30
2019-02-04T06:25:53.474Z,11.00
2019-02-04T06:30:44.950Z,12.20
2019-02-04T06:35:38.680Z,12.90
2019-02-04T06:40:36.988Z,13.50
2019-02-04T06:45:28.326Z,14.20
2019-02-04T06:50:19.694Z,13.40
2019-02-04T06:55:11.166Z,13.90
2019-02-04T07:00:02.582Z,14.70
2019-02-04T07:04:54.002Z,14.00
2019-02-04T07:09:47.613Z,17.90
2019-02-04T07:14:39.054Z,14.60
2019-02-04T07:19:30.426Z,14.50
2019-02-04T07:24:21.861Z,14.10
2019-02-04T07:29:15.503Z,14.80
2019-02-04T07:34:06.930Z,15.10
2019-02-04T07:38:58.316Z,14.10
2019-02-04T07:43:49.749Z,15.90
2019-02-04T07:48:41.061Z,15.50
2019-02-04T07:53:32.519Z,15.70
2019-02-04T07:58:26.194Z,15.10
2019-02-04T08:03:17.651Z,18.40
2019-02-04T08:08:08.954Z,16.40
2019-02-04T08:13:01.756Z,16.00
2019-02-04T08:17:54.173Z,19.00
2019-02-04T08:22:45.526Z,16.40
2019-02-04T08:27:36.988Z,15.60
2019-02-04T08:32:28.354Z,17.50
2019-02-04T08:37:19.738Z,16.20
2019-02-04T08:42:11.084Z,17.90
2019-02-04T08:47:02.413Z,16.20
2019-02-04T08:51:53.913Z,15.10
2019-02-04T08:56:45.266Z,16.90
2019-02-04T09:01:39.038Z,20.00
2019-02-04T09:06:30.460Z,19.30
2019-02-04T09:11:21.906Z,18.00
2019-02-04T09:16:13.308Z,17.60
2019-02-04T09:21:04.713Z,19.80
2019-02-04T09:25:56.064Z,17.00
2019-02-04T09:30:47.523Z,19.70
2019-02-04T09:35:39.105Z,16.00
2019-02-04T09:40:30.545Z,15.30
2019-02-04T09:45:24.328Z,15.30
2019-02-04T09:50:21.352Z,16.10
2019-02-04T09:55:04.674Z,16.20
2019-02-04T09:59:56.128Z,16.80
2019-02-04T10:04:47.466Z,17.10
2019-02-04T10:09:38.913Z,14.30
2019-02-04T10:14:30.317Z,14.70
2019-02-04T10:19:24.060Z,14.50
2019-02-04T10:24:15.461Z,10.00
2019-02-04T10:29:06.904Z,10.40
2019-02-04T10:33:58.276Z,8.80
2019-02-04T10:38:49.680Z,8.40
2019-02-04T10:43:41.023Z,5.60
2019-02-04T10:48:32.476Z,6.30
2019-02-04T10:53:23.904Z,7.30
2019-02-04T10:58:15.292Z,6.10
2019-02-04T11:03:06.580Z,5.10
2019-02-04T11:07:58.106Z,6.00
2019-02-04T11:12:49.498Z,8.50
2019-02-04T11:17:40.847Z,7.70
2019-02-04T11:22:32.238Z,7.80
2019-02-04T11:27:23.689Z,8.90
2019-02-04T11:32:15.143Z,8.50
2019-02-04T11:37:06.486Z,9.10
2019-02-04T11:41:57.989Z,7.50
2019-02-04T11:46:49.287Z,8.00
2019-02-04T11:51:40.746Z,32.00
2019-02-04T11:56:32.204Z,7.00
2019-02-04T12:01:23.500Z,7.10
2019-02-04T12:06:17.439Z,6.30
2019-02-04T12:11:06.312Z,7.60
2019-02-04T12:15:57.731Z,12.10
2019-02-04T12:20:49.109Z,7.20
2019-02-04T12:25:40.537Z,9.80
2019-02-04T12:30:32.097Z,10.50
2019-02-04T12:35:25.861Z,11.10
2019-02-04T12:40:17.185Z,9.00
2019-02-04T12:45:08.720Z,8.70
2019-02-04T12:50:00.599Z,10.80
2019-02-04T12:54:51.531Z,6.50
2019-02-04T12:59:45.133Z,7.20
2019-02-04T13:04:34.293Z,6.60
2019-02-04T13:09:25.882Z,9.50
2019-02-04T13:14:17.162Z,5.30
2019-02-04T13:19:10.795Z,6.00
2019-02-04T13:24:02.210Z,6.30
2019-02-04T13:28:53.698Z,8.80
2019-02-04T13:33:45.082Z,8.40
2019-02-04T13:38:36.419Z,8.70
2019-02-04T13:43:27.845Z,6.70
2019-02-04T13:48:21.686Z,7.80
2019-02-04T13:53:13.119Z,9.10
2019-02-04T13:58:06.668Z,9.60
2019-02-04T14:02:59.564Z,10.70
2019-02-04T14:07:49.486Z,11.60
2019-02-04T14:12:40.863Z,10.00
2019-02-04T14:17:32.264Z,9.50
2019-02-04T14:22:26.003Z,8.90
2019-02-04T14:27:17.462Z,9.80
2019-02-04T14:32:08.762Z,9.70
2019-02-04T14:37:00.206Z,9.30
2019-02-04T14:41:51.558Z,8.60
2019-02-04T14:46:43.145Z,9.90
2019-02-04T14:51:34.458Z,21.20
2019-02-04T14:56:26.146Z,8.10
2019-02-04T15:01:17.352Z,7.70
2019-02-04T15:06:11.106Z,8.30
2019-02-04T15:11:02.422Z,8.80
2019-02-04T15:15:58.402Z,8.50
2019-02-04T15:20:49.900Z,9.00
2019-02-04T15:25:43.591Z,9.10
2019-02-04T15:30:34.893Z,13.70
2019-02-04T15:40:19.874Z,10.30
2019-02-04T15:45:13.875Z,10.00
2019-02-04T15:50:07.257Z,9.30
2019-02-04T15:54:58.671Z,8.50
2019-02-04T15:59:50.017Z,11.40
2019-02-04T16:04:41.550Z,8.90
2019-02-04T16:09:32.864Z,9.90
2019-02-04T16:14:24.404Z,10.50
2019-02-04T16:19:17.923Z,10.20
2019-02-04T16:24:09.389Z,11.50
2019-02-04T16:29:00.666Z,17.20
2019-02-04T16:33:54.381Z,16.60
2019-02-04T16:38:45.757Z,11.80
2019-02-04T16:43:37.194Z,12.30
2019-02-04T16:48:28.578Z,12.60
2019-02-04T16:53:20.004Z,12.10
2019-02-04T16:58:13.641Z,8.00
2019-02-04T17:03:05.097Z,8.90
2019-02-04T17:07:56.416Z,9.60
2019-02-04T17:12:47.863Z,9.40
2019-02-04T17:17:39.228Z,8.60
2019-02-04T17:22:30.677Z,9.20
2019-02-04T17:27:22.032Z,10.60
2019-02-04T17:32:13.442Z,11.10
2019-02-04T17:37:07.095Z,12.30
2019-02-04T17:46:49.866Z,10.00
2019-02-04T17:51:42.158Z,9.70
2019-02-04T18:06:15.427Z,11.40
2019-02-04T18:16:00.511Z,11.20
2019-02-04T18:20:52.045Z,10.90
2019-02-04T18:25:43.292Z,12.50
2019-02-04T18:50:05.279Z,11.70
2019-02-04T18:54:56.329Z,11.80
2019-02-04T18:59:47.993Z,18.70
2019-02-04T19:19:13.805Z,11.60
2019-02-04T19:24:09.436Z,10.50
2019-02-04T19:28:56.193Z,10.40
2019-02-04T19:33:47.491Z,11.70
2019-02-04T19:53:13.071Z,11.70
2019-02-04T19:58:04.622Z,15.20
2019-02-04T20:02:55.900Z,12.60
2019-02-04T20:07:47.587Z,11.50
2019-02-04T20:22:21.452Z,13.40
2019-02-04T20:27:12.924Z,12.50
2019-02-04T20:36:56.010Z,12.70
2019-02-04T20:41:47.024Z,12.40
2019-02-04T21:01:14.847Z,11.00
2019-02-04T21:06:06.262Z,11.50
2019-02-04T21:10:59.938Z,13.40
2019-02-04T21:15:51.442Z,11.90
2019-02-04T21:20:42.812Z,12.30
2019-02-04T21:35:19.306Z,14.10
2019-02-04T21:40:10.621Z,13.70
2019-02-04T21:45:04.350Z,16.20
2019-02-04T21:49:55.696Z,14.20
2019-02-04T21:54:47.474Z,14.40
2019-02-04T22:14:13.076Z,16.60
2019-02-04T22:19:04.021Z,18.00
2019-02-04T22:23:55.490Z,20.10
2019-02-04T22:28:53.655Z,18.50
2019-02-04T22:33:45.089Z,16.60
2019-02-04T22:48:19.224Z,17.60
2019-02-04T22:58:01.993Z,16.60
2019-02-04T23:02:53.498Z,17.50
2019-02-04T23:07:47.038Z,15.90
2019-02-04T23:12:40.728Z,16.80
2019-02-04T23:32:06.362Z,17.50
2019-02-04T23:36:57.630Z,17.50
2019-02-04T23:41:49.107Z,18.80
